createdAt,value
2018-08-28T00:00:30.171Z,0.00
2018-08-28T00:01:30.096Z,0.00
2018-08-28T00:02:30.025Z,0.00
2018-08-28T00:03:29.950Z,0.00
2018-08-28T00:04:29.877Z,0.00
2018-08-28T00:05:29.803Z,0.00
2018-08-28T00:06:29.727Z,0.00
2018-08-28T00:07:29.656Z,0.00
2018-08-28T00:08:29.582Z,0.00
2018-08-28T00:09:29.510Z,0.00
2018-08-28T00:10:29.442Z,0.00
2018-08-28T00:11:29.357Z,0.00
2018-08-28T00:12:29.287Z,0.00
2018-08-28T00:13:29.216Z,0.00
2018-08-28T00:14:29.137Z,0.00
2018-08-28T00:15:29.066Z,0.00
2018-08-28T00:16:28.990Z,0.00
2018-08-28T00:17:28.916Z,0.00
2018-08-28T00:18:28.843Z,0.00
2018-08-28T00:19:28.784Z,0.00
2018-08-28T00:20:28.694Z,0.00
2018-08-28T00:21:28.621Z,0.00
2018-08-28T00:22:28.548Z,0.00
2018-08-28T00:23:28.475Z,0.00
2018-08-28T00:24:28.403Z,0.00
2018-08-28T00:25:28.330Z,0.00
2018-08-28T00:26:28.252Z,0.00
2018-08-28T00:27:28.179Z,0.00
2018-08-28T00:28:28.107Z,0.00
2018-08-28T00:29:28.032Z,0.00
2018-08-28T00:30:27.956Z,0.00
2018-08-28T00:31:27.884Z,0.00
2018-08-28T00:32:27.810Z,0.00
2018-08-28T00:33:27.734Z,0.00
2018-08-28T00:34:27.664Z,0.00
2018-08-28T00:35:27.587Z,0.00
2018-08-28T00:36:27.516Z,0.00
2018-08-28T00:37:27.441Z,0.00
2018-08-28T00:38:27.366Z,0.00
2018-08-28T00:39:27.293Z,0.00
2018-08-28T00:40:27.221Z,0.00
2018-08-28T00:41:27.154Z,0.00
2018-08-28T00:42:27.071Z,0.00
2018-08-28T00:43:27.005Z,0.00
2018-08-28T00:44:26.922Z,0.00
2018-08-28T00:45:26.857Z,0.00
2018-08-28T00:46:26.776Z,0.00
2018-08-28T00:47:26.700Z,0.00
2018-08-28T00:48:26.630Z,0.00
2018-08-28T00:49:26.552Z,0.00
2018-08-28T00:50:26.479Z,0.00
2018-08-28T00:51:26.409Z,0.00
2018-08-28T00:52:26.420Z,0.00
2018-08-28T00:53:26.256Z,0.00
2018-08-28T00:54:26.189Z,0.00
2018-08-28T00:55:26.108Z,0.00
2018-08-28T00:56:26.035Z,0.00
2018-08-28T00:57:25.965Z,0.00
2018-08-28T00:58:25.887Z,0.00
2018-08-28T00:59:25.814Z,0.00
2018-08-28T01:00:25.743Z,0.00
2018-08-28T01:01:25.669Z,0.00
2018-08-28T01:02:25.591Z,0.00
2018-08-28T01:03:25.517Z,0.00
2018-08-28T01:04:25.448Z,0.00
2018-08-28T01:05:25.377Z,0.00
2018-08-28T01:06:25.295Z,0.00
2018-08-28T01:07:25.221Z,0.00
2018-08-28T01:08:25.148Z,0.00
2018-08-28T01:09:25.085Z,0.00
2018-08-28T01:10:25.002Z,0.00
2018-08-28T01:11:24.925Z,0.00
2018-08-28T01:12:24.854Z,0.00
2018-08-28T01:13:24.779Z,0.00
2018-08-28T01:14:24.701Z,0.00
2018-08-28T01:15:24.631Z,0.00
2018-08-28T01:16:24.564Z,0.00
2018-08-28T01:17:24.483Z,0.00
2018-08-28T01:18:24.406Z,0.00
2018-08-28T01:19:24.337Z,0.00
2018-08-28T01:20:24.258Z,0.00
2018-08-28T01:21:24.187Z,0.00
2018-08-28T01:22:24.110Z,0.00
2018-08-28T01:23:24.042Z,0.00
2018-08-28T01:24:23.965Z,0.00
2018-08-28T01:25:23.890Z,0.00
2018-08-28T01:26:23.817Z,0.00
2018-08-28T01:27:23.744Z,0.00
2018-08-28T01:28:23.668Z,0.00
2018-08-28T01:29:23.595Z,0.00
2018-08-28T01:30:23.516Z,0.00
2018-08-28T01:31:23.443Z,0.00
2018-08-28T01:32:23.379Z,0.00
2018-08-28T01:33:23.295Z,0.00
2018-08-28T01:34:23.221Z,0.00
2018-08-28T01:35:23.145Z,0.00
2018-08-28T01:36:23.075Z,0.00
2018-08-28T01:37:22.997Z,0.00
2018-08-28T01:38:22.922Z,0.00
2018-08-28T01:39:22.854Z,0.00
2018-08-28T01:40:22.775Z,0.00
2018-08-28T01:41:22.699Z,0.00
2018-08-28T01:42:22.624Z,0.00
2018-08-28T01:43:22.553Z,0.00
2018-08-28T01:44:22.483Z,0.00
2018-08-28T01:45:22.405Z,0.00
2018-08-28T01:46:22.329Z,0.00
2018-08-28T01:47:22.255Z,0.00
2018-08-28T01:48:22.180Z,0.00
2018-08-28T01:49:22.105Z,0.00
2018-08-28T01:50:22.030Z,0.00
2018-08-28T01:51:21.957Z,0.00
2018-08-28T01:52:21.884Z,0.00
2018-08-28T01:53:21.811Z,0.00
2018-08-28T01:54:21.730Z,0.00
2018-08-28T01:55:21.658Z,0.00
2018-08-28T01:56:21.586Z,0.00
2018-08-28T01:57:21.513Z,0.00
2018-08-28T01:58:21.440Z,0.00
2018-08-28T01:59:21.357Z,0.00
2018-08-28T02:00:21.292Z,0.00
2018-08-28T02:01:21.216Z,0.00
2018-08-28T02:02:21.137Z,0.00
2018-08-28T02:03:21.065Z,0.00
2018-08-28T02:04:20.985Z,0.00
2018-08-28T02:05:20.916Z,0.00
2018-08-28T02:06:20.841Z,0.00
2018-08-28T02:07:20.767Z,0.00
2018-08-28T02:08:20.690Z,0.00
2018-08-28T02:09:20.614Z,0.00
2018-08-28T02:10:20.540Z,0.00
2018-08-28T02:11:20.467Z,0.00
2018-08-28T02:12:20.400Z,0.00
2018-08-28T02:13:20.409Z,0.00
2018-08-28T02:14:20.241Z,0.00
2018-08-28T02:15:20.165Z,0.00
2018-08-28T02:16:20.100Z,0.00
2018-08-28T02:17:20.030Z,0.00
2018-08-28T02:18:19.948Z,0.00
2018-08-28T02:19:19.867Z,0.00
2018-08-28T02:20:19.795Z,0.00
2018-08-28T02:21:19.720Z,0.00
2018-08-28T02:22:19.649Z,0.00
2018-08-28T02:23:19.570Z,0.00
2018-08-28T02:24:19.505Z,0.00
2018-08-28T02:25:19.443Z,0.00
2018-08-28T02:26:19.345Z,0.00
2018-08-28T02:27:19.276Z,0.00
2018-08-28T02:28:19.198Z,0.00
2018-08-28T02:29:19.131Z,0.00
2018-08-28T02:30:19.052Z,0.00
2018-08-28T02:31:18.978Z,0.00
2018-08-28T02:32:18.901Z,0.00
2018-08-28T02:33:18.827Z,0.00
2018-08-28T02:34:18.750Z,0.00
2018-08-28T02:35:18.676Z,0.00
2018-08-28T02:36:18.603Z,0.00
2018-08-28T02:37:18.527Z,0.00
2018-08-28T02:38:18.455Z,0.00
2018-08-28T02:39:18.379Z,0.00
2018-08-28T02:40:18.299Z,0.00
2018-08-28T02:41:18.233Z,0.00
2018-08-28T02:42:18.151Z,0.00
2018-08-28T02:43:18.132Z,0.00
2018-08-28T02:44:18.003Z,0.00
2018-08-28T02:45:17.942Z,0.00
2018-08-28T02:46:17.855Z,0.00
2018-08-28T02:47:17.784Z,0.00
2018-08-28T02:48:17.708Z,0.00
2018-08-28T02:49:17.630Z,0.00
2018-08-28T02:50:17.553Z,0.00
2018-08-28T02:51:17.484Z,0.00
2018-08-28T02:52:17.406Z,0.00
2018-08-28T02:53:17.331Z,0.00
2018-08-28T02:54:17.255Z,0.00
2018-08-28T02:55:17.182Z,0.00
2018-08-28T02:56:17.197Z,0.00
2018-08-28T02:57:17.036Z,0.00
2018-08-28T02:58:16.957Z,0.00
2018-08-28T02:59:16.882Z,0.00
2018-08-28T03:00:16.816Z,0.00
2018-08-28T03:01:16.735Z,0.00
2018-08-28T03:02:16.657Z,0.00
2018-08-28T03:03:16.588Z,0.00
2018-08-28T03:04:16.509Z,0.00
2018-08-28T03:05:16.441Z,0.00
2018-08-28T03:06:16.366Z,0.00
2018-08-28T03:07:16.291Z,0.00
2018-08-28T03:08:16.217Z,0.00
2018-08-28T03:09:16.145Z,0.00
2018-08-28T03:10:16.066Z,0.00
2018-08-28T03:11:16.067Z,0.00
2018-08-28T03:12:15.913Z,0.00
2018-08-28T03:13:15.851Z,0.00
2018-08-28T03:14:15.763Z,0.00
2018-08-28T03:15:15.692Z,0.00
2018-08-28T03:16:15.617Z,0.00
2018-08-28T03:17:15.543Z,0.00
2018-08-28T03:18:15.470Z,0.00
2018-08-28T03:19:15.391Z,0.00
2018-08-28T03:20:15.317Z,0.00
2018-08-28T03:21:15.243Z,0.00
2018-08-28T03:22:15.167Z,0.00
2018-08-28T03:23:15.093Z,0.00
2018-08-28T03:24:15.028Z,0.00
2018-08-28T03:25:14.950Z,0.00
2018-08-28T03:26:14.869Z,0.00
2018-08-28T03:27:14.804Z,0.00
2018-08-28T03:28:21.880Z,0.00
2018-08-28T03:30:18.578Z,0.00
2018-08-28T03:31:18.459Z,0.00
2018-08-28T03:33:22.320Z,0.00
2018-08-28T03:34:22.192Z,0.00
2018-08-28T03:36:26.003Z,0.00
2018-08-28T03:37:25.926Z,0.00
2018-08-28T03:39:18.722Z,0.00
2018-08-28T03:40:18.599Z,0.00
2018-08-28T03:42:22.411Z,0.00
2018-08-28T03:43:22.341Z,0.00
2018-08-28T03:45:26.194Z,0.00
2018-08-28T03:46:26.076Z,0.00
2018-08-28T03:47:25.998Z,0.00
2018-08-28T03:48:25.929Z,0.00
2018-08-28T03:49:25.847Z,0.00
2018-08-28T03:50:25.774Z,0.00
2018-08-28T03:51:25.700Z,0.00
2018-08-28T03:52:25.625Z,0.00
2018-08-28T03:53:25.550Z,0.00
2018-08-28T03:54:25.478Z,0.00
2018-08-28T03:55:25.448Z,0.00
2018-08-28T03:56:25.333Z,0.00
2018-08-28T03:57:25.254Z,0.00
2018-08-28T03:58:25.178Z,0.00
2018-08-28T03:59:25.103Z,4.00
2018-08-28T04:00:25.030Z,4.00
2018-08-28T04:01:24.954Z,4.00
2018-08-28T04:02:24.887Z,4.00
2018-08-28T04:03:24.806Z,4.00
2018-08-28T04:04:24.733Z,0.00
2018-08-28T04:05:24.657Z,0.00
2018-08-28T04:06:24.582Z,0.00
2018-08-28T04:07:24.506Z,4.00
2018-08-28T04:08:24.433Z,4.00
2018-08-28T04:09:24.366Z,4.00
2018-08-28T04:10:24.283Z,8.00
2018-08-28T04:11:24.216Z,4.00
2018-08-28T04:12:24.137Z,8.00
2018-08-28T04:13:24.059Z,8.00
2018-08-28T04:14:23.997Z,8.00
2018-08-28T04:15:23.914Z,8.00
2018-08-28T04:16:23.851Z,12.00
2018-08-28T04:17:23.766Z,12.00
2018-08-28T04:18:23.693Z,16.00
2018-08-28T04:19:23.620Z,20.00
2018-08-28T04:20:23.538Z,24.00
2018-08-28T04:21:23.468Z,24.00
2018-08-28T04:22:23.396Z,32.00
2018-08-28T04:23:23.314Z,32.00
2018-08-28T04:24:23.248Z,32.00
2018-08-28T04:25:23.163Z,28.00
2018-08-28T04:26:23.106Z,28.00
2018-08-28T04:27:23.015Z,24.00
2018-08-28T04:28:22.941Z,24.00
2018-08-28T04:29:22.866Z,28.00
2018-08-28T04:30:22.817Z,32.00
2018-08-28T04:31:22.718Z,36.00
2018-08-28T04:32:22.643Z,48.00
2018-08-28T04:33:22.567Z,60.00
2018-08-28T04:34:22.493Z,64.00
2018-08-28T04:35:22.419Z,64.00
2018-08-28T04:36:22.344Z,68.00
2018-08-28T04:37:22.272Z,80.00
2018-08-28T04:38:22.194Z,96.00
2018-08-28T04:39:22.123Z,104.00
2018-08-28T04:40:22.046Z,112.00
2018-08-28T04:41:21.979Z,120.00
2018-08-28T04:42:21.900Z,128.00
2018-08-28T04:43:21.823Z,144.00
2018-08-28T04:44:21.750Z,156.00
2018-08-28T04:45:21.681Z,168.00
2018-08-28T04:46:21.603Z,188.00
2018-08-28T04:47:21.523Z,204.00
2018-08-28T04:48:21.461Z,224.00
2018-08-28T04:49:21.377Z,244.00
2018-08-28T04:50:21.302Z,264.00
2018-08-28T04:51:21.232Z,284.00
2018-08-28T04:52:21.156Z,320.00
2018-08-28T04:53:21.075Z,344.00
2018-08-28T04:54:21.131Z,360.00
2018-08-28T04:55:20.928Z,372.00
2018-08-28T04:56:20.853Z,388.00
2018-08-28T04:57:20.776Z,404.00
2018-08-28T04:58:20.705Z,412.00
2018-08-28T04:59:20.631Z,412.00
2018-08-28T05:00:20.560Z,408.00
2018-08-28T05:01:20.479Z,412.00
2018-08-28T05:02:20.404Z,408.00
2018-08-28T05:03:20.330Z,416.00
2018-08-28T05:04:20.260Z,428.00
2018-08-28T05:05:20.185Z,428.00
2018-08-28T05:06:20.107Z,420.00
2018-08-28T05:07:20.031Z,428.00
2018-08-28T05:08:19.962Z,448.00
2018-08-28T05:09:19.888Z,452.00
2018-08-28T05:10:19.809Z,436.00
2018-08-28T05:11:19.733Z,448.00
2018-08-28T05:12:19.664Z,464.00
2018-08-28T05:13:19.584Z,460.00
2018-08-28T05:14:19.517Z,480.00
2018-08-28T05:15:19.441Z,520.00
2018-08-28T05:16:19.361Z,544.00
2018-08-28T05:17:19.291Z,560.00
2018-08-28T05:18:19.211Z,592.00
2018-08-28T05:19:19.189Z,612.00
2018-08-28T05:20:19.064Z,688.00
2018-08-28T05:21:18.986Z,744.00
2018-08-28T05:22:18.911Z,764.00
2018-08-28T05:23:18.838Z,792.00
2018-08-28T05:24:18.765Z,812.00
2018-08-28T05:25:18.710Z,804.00
2018-08-28T05:26:18.617Z,788.00
2018-08-28T05:27:18.542Z,752.00
2018-08-28T05:28:18.467Z,768.00
2018-08-28T05:29:18.399Z,796.00
2018-08-28T05:30:18.324Z,812.00
2018-08-28T05:31:18.250Z,840.00
2018-08-28T05:32:18.178Z,916.00
2018-08-28T05:33:18.101Z,1000.00
2018-08-28T05:34:18.019Z,1064.00
2018-08-28T05:35:17.952Z,1104.00
2018-08-28T05:36:17.872Z,1128.00
2018-08-28T05:37:17.797Z,1156.00
2018-08-28T05:38:17.731Z,1160.00
2018-08-28T05:39:17.647Z,1124.00
2018-08-28T05:40:17.580Z,1172.00
2018-08-28T05:41:17.504Z,1168.00
2018-08-28T05:42:17.425Z,1168.00
2018-08-28T05:43:17.365Z,1180.00
2018-08-28T05:44:17.279Z,1176.00
2018-08-28T05:45:17.207Z,1200.00
2018-08-28T05:46:17.127Z,1212.00
2018-08-28T05:47:17.053Z,1268.00
2018-08-28T05:48:16.982Z,1340.00
2018-08-28T05:49:16.912Z,1424.00
2018-08-28T05:50:16.831Z,1472.00
2018-08-28T05:51:16.757Z,1560.00
2018-08-28T05:52:16.686Z,1520.00
2018-08-28T05:53:16.612Z,1524.00
2018-08-28T05:54:16.533Z,1532.00
2018-08-28T05:55:16.462Z,1608.00
2018-08-28T05:56:16.467Z,1620.00
2018-08-28T05:57:16.312Z,1696.00
2018-08-28T05:58:16.247Z,1784.00
2018-08-28T05:59:16.164Z,1788.00
2018-08-28T06:00:16.098Z,1756.00
2018-08-28T06:01:16.025Z,1736.00
2018-08-28T06:02:15.943Z,1744.00
2018-08-28T06:03:15.979Z,1792.00
2018-08-28T06:04:15.800Z,1784.00
2018-08-28T06:05:15.818Z,1808.00
2018-08-28T06:06:15.653Z,1840.00
2018-08-28T06:07:15.570Z,1968.00
2018-08-28T06:08:15.502Z,1948.00
2018-08-28T06:09:15.429Z,1976.00
2018-08-28T06:10:15.384Z,1936.00
2018-08-28T06:11:15.276Z,1844.00
2018-08-28T06:12:15.234Z,2012.00
2018-08-28T06:13:15.135Z,1948.00
2018-08-28T06:14:15.055Z,2020.00
2018-08-28T06:15:14.980Z,2116.00
2018-08-28T06:16:14.911Z,2124.00
2018-08-28T06:17:14.835Z,2176.00
2018-08-28T06:18:14.762Z,2152.00
2018-08-28T06:19:14.688Z,2176.00
2018-08-28T06:20:14.616Z,2200.00
2018-08-28T06:21:14.537Z,2152.00
2018-08-28T06:22:14.467Z,2124.00
2018-08-28T06:23:14.391Z,2192.00
2018-08-28T06:24:14.323Z,2264.00
2018-08-28T06:25:14.243Z,2352.00
2018-08-28T06:26:14.170Z,2396.00
2018-08-28T06:27:14.096Z,2472.00
2018-08-28T06:28:14.023Z,2456.00
2018-08-28T06:29:13.949Z,2404.00
2018-08-28T06:30:13.875Z,2328.00
2018-08-28T06:31:13.812Z,2240.00
2018-08-28T06:32:13.730Z,2276.00
2018-08-28T06:33:13.665Z,2404.00
2018-08-28T06:34:13.582Z,2520.00
2018-08-28T06:35:13.518Z,2768.00
2018-08-28T06:36:13.434Z,2660.00
2018-08-28T06:37:13.386Z,2676.00
2018-08-28T06:38:13.289Z,2816.00
2018-08-28T06:39:13.302Z,2708.00
2018-08-28T06:40:13.148Z,2524.00
2018-08-28T06:41:13.075Z,2568.00
2018-08-28T06:42:12.992Z,2568.00
2018-08-28T06:43:12.931Z,2552.00
2018-08-28T06:44:12.849Z,2620.00
2018-08-28T06:45:12.775Z,2692.00
2018-08-28T06:46:12.707Z,2632.00
2018-08-28T06:47:12.628Z,2936.00
2018-08-28T06:48:12.563Z,2856.00
2018-08-28T06:49:12.489Z,2792.00
2018-08-28T06:50:12.408Z,2828.00
2018-08-28T06:51:12.332Z,2672.00
2018-08-28T06:52:12.260Z,2772.00
2018-08-28T06:53:12.186Z,2548.00
2018-08-28T06:54:12.127Z,2816.00
2018-08-28T06:55:12.038Z,2640.00
2018-08-28T06:56:11.980Z,2468.00
2018-08-28T06:57:11.894Z,2420.00
2018-08-28T06:58:11.823Z,2684.00
2018-08-28T06:59:11.746Z,2692.00
2018-08-28T07:00:11.676Z,2740.00
2018-08-28T07:01:11.615Z,2704.00
2018-08-28T07:02:11.527Z,2580.00
2018-08-28T07:03:11.454Z,2696.00
2018-08-28T07:04:11.380Z,2704.00
2018-08-28T07:05:11.309Z,2732.00
2018-08-28T07:06:11.234Z,2732.00
2018-08-28T07:07:11.165Z,2756.00
2018-08-28T07:08:11.088Z,2760.00
2018-08-28T07:09:11.013Z,2760.00
2018-08-28T07:10:10.996Z,2780.00
2018-08-28T07:11:10.867Z,2784.00
2018-08-28T07:12:10.797Z,2764.00
2018-08-28T07:13:10.719Z,2832.00
2018-08-28T07:14:10.645Z,2840.00
2018-08-28T07:15:10.584Z,2868.00
2018-08-28T07:16:10.502Z,2916.00
2018-08-28T07:17:10.429Z,2936.00
2018-08-28T07:18:10.358Z,2960.00
2018-08-28T07:19:10.279Z,2996.00
2018-08-28T07:20:10.214Z,3000.00
2018-08-28T07:21:10.133Z,3060.00
2018-08-28T07:22:10.058Z,3128.00
2018-08-28T07:23:09.987Z,3108.00
2018-08-28T07:24:09.915Z,3108.00
2018-08-28T07:25:09.836Z,3152.00
2018-08-28T07:26:09.797Z,3176.00
2018-08-28T07:27:09.692Z,3188.00
2018-08-28T07:28:09.618Z,2924.00
2018-08-28T07:29:09.548Z,3100.00
2018-08-28T07:30:09.471Z,3360.00
2018-08-28T07:31:09.452Z,3568.00
2018-08-28T07:32:09.326Z,3696.00
2018-08-28T07:33:09.250Z,3764.00
2018-08-28T07:34:09.180Z,3964.00
2018-08-28T07:35:09.106Z,4084.00
2018-08-28T07:36:09.034Z,4088.00
2018-08-28T07:37:08.982Z,4076.00
2018-08-28T07:38:08.888Z,3640.00
2018-08-28T07:39:08.819Z,3692.00
2018-08-28T07:40:08.742Z,3640.00
2018-08-28T07:41:08.665Z,3848.00
2018-08-28T07:42:08.595Z,3660.00
2018-08-28T07:43:08.520Z,4060.00
2018-08-28T07:44:08.450Z,4260.00
2018-08-28T07:45:08.375Z,4640.00
2018-08-28T07:46:08.306Z,4848.00
2018-08-28T07:47:08.235Z,4712.00
2018-08-28T07:48:08.157Z,4164.00
2018-08-28T07:49:08.090Z,3800.00
2018-08-28T07:50:08.010Z,3784.00
2018-08-28T07:51:07.944Z,3756.00
2018-08-28T07:52:07.913Z,3936.00
2018-08-28T07:53:07.798Z,3856.00
2018-08-28T07:54:07.728Z,4016.00
2018-08-28T07:55:07.649Z,3996.00
2018-08-28T07:56:07.576Z,3920.00
2018-08-28T07:57:07.502Z,4028.00
2018-08-28T07:58:07.431Z,4268.00
2018-08-28T07:59:07.364Z,4568.00
2018-08-28T08:00:07.293Z,5108.00
2018-08-28T08:01:07.211Z,5192.00
2018-08-28T08:02:07.156Z,4796.00
2018-08-28T08:03:07.090Z,4532.00
2018-08-28T08:04:07.001Z,4184.00
2018-08-28T08:05:06.931Z,3556.00
2018-08-28T08:06:06.860Z,3388.00
2018-08-28T08:07:06.782Z,3208.00
2018-08-28T08:08:06.705Z,3012.00
2018-08-28T08:09:06.657Z,2888.00
2018-08-28T08:10:06.582Z,2740.00
2018-08-28T08:11:06.490Z,2628.00
2018-08-28T08:12:06.420Z,2596.00
2018-08-28T08:13:06.342Z,2724.00
2018-08-28T08:14:06.272Z,2904.00
2018-08-28T08:15:06.235Z,3072.00
2018-08-28T08:16:06.133Z,3236.00
2018-08-28T08:17:06.100Z,3440.00
2018-08-28T08:18:05.984Z,3956.00
2018-08-28T08:19:05.961Z,3760.00
2018-08-28T08:20:05.843Z,3668.00
2018-08-28T08:21:05.821Z,3672.00
2018-08-28T08:22:05.735Z,3284.00
2018-08-28T08:23:05.617Z,3380.00
2018-08-28T08:24:05.547Z,3732.00
2018-08-28T08:25:05.478Z,3540.00
2018-08-28T08:26:05.407Z,3752.00
2018-08-28T08:27:05.345Z,3924.00
2018-08-28T08:28:05.357Z,4016.00
2018-08-28T08:29:05.180Z,4092.00
2018-08-28T08:30:05.114Z,4116.00
2018-08-28T08:31:05.038Z,4156.00
2018-08-28T08:32:04.974Z,4228.00
2018-08-28T08:33:04.893Z,4300.00
2018-08-28T08:34:04.826Z,4212.00
2018-08-28T08:35:04.747Z,4176.00
2018-08-28T08:36:04.724Z,4276.00
2018-08-28T08:37:04.602Z,4548.00
2018-08-28T08:38:04.534Z,4476.00
2018-08-28T08:39:04.463Z,4500.00
2018-08-28T08:40:04.388Z,4588.00
2018-08-28T08:41:04.330Z,4624.00
2018-08-28T08:42:04.315Z,4500.00
2018-08-28T08:43:04.169Z,3940.00
2018-08-28T08:44:04.100Z,3984.00
2018-08-28T08:45:04.067Z,3988.00
2018-08-28T08:46:03.955Z,4288.00
2018-08-28T08:47:03.885Z,4760.00
2018-08-28T08:48:03.812Z,4760.00
2018-08-28T08:49:04.716Z,4836.00
2018-08-28T08:50:03.708Z,4848.00
2018-08-28T08:51:03.647Z,4864.00
2018-08-28T08:52:03.525Z,4912.00
2018-08-28T08:53:03.451Z,4996.00
2018-08-28T08:54:03.375Z,5052.00
2018-08-28T08:55:03.388Z,5148.00
2018-08-28T08:56:03.232Z,5228.00
2018-08-28T08:57:03.164Z,5224.00
2018-08-28T08:58:03.093Z,5192.00
2018-08-28T08:59:03.020Z,5224.00
2018-08-28T09:00:02.942Z,5356.00
2018-08-28T09:01:02.876Z,5432.00
2018-08-28T09:02:02.799Z,5680.00
2018-08-28T09:03:02.732Z,6072.00
2018-08-28T09:04:02.654Z,6716.00
2018-08-28T09:05:02.584Z,6804.00
2018-08-28T09:06:02.606Z,6360.00
2018-08-28T09:07:02.445Z,6176.00
2018-08-28T09:08:02.370Z,6588.00
2018-08-28T09:09:02.296Z,5996.00
2018-08-28T09:10:02.229Z,5688.00
2018-08-28T09:11:02.152Z,5508.00
2018-08-28T09:12:02.085Z,5800.00
2018-08-28T09:13:02.009Z,6504.00
2018-08-28T09:14:01.940Z,6560.00
2018-08-28T09:15:01.871Z,6244.00
2018-08-28T09:16:01.802Z,6168.00
2018-08-28T09:17:01.723Z,5896.00
2018-08-28T09:18:01.651Z,6012.00
2018-08-28T09:19:01.582Z,6224.00
2018-08-28T09:20:01.512Z,6420.00
2018-08-28T09:21:01.435Z,6632.00
2018-08-28T09:22:01.366Z,5988.00
2018-08-28T09:23:01.292Z,6328.00
2018-08-28T09:24:01.229Z,5972.00
2018-08-28T09:25:01.154Z,5632.00
2018-08-28T09:26:01.078Z,5544.00
2018-08-28T09:27:01.009Z,5564.00
2018-08-28T09:28:00.940Z,5840.00
2018-08-28T09:29:08.529Z,6148.00
2018-08-28T09:31:04.757Z,6520.00
2018-08-28T09:32:04.628Z,6152.00
2018-08-28T09:34:08.504Z,4524.00
2018-08-28T09:35:08.391Z,4384.00
2018-08-28T09:36:08.313Z,4392.00
2018-08-28T09:37:08.236Z,4532.00
2018-08-28T09:38:08.169Z,4712.00
2018-08-28T09:39:08.106Z,5104.00
2018-08-28T09:40:08.033Z,5456.00
2018-08-28T09:41:07.951Z,5312.00
2018-08-28T09:42:07.878Z,5412.00
2018-08-28T09:43:07.814Z,5860.00
2018-08-28T09:44:07.737Z,5228.00
2018-08-28T09:45:07.666Z,4388.00
2018-08-28T09:46:07.596Z,4220.00
2018-08-28T09:47:07.525Z,4012.00
2018-08-28T09:48:07.471Z,4184.00
2018-08-28T09:49:07.384Z,4428.00
2018-08-28T09:50:07.310Z,4636.00
2018-08-28T09:51:07.300Z,4744.00
2018-08-28T09:52:07.172Z,4812.00
2018-08-28T09:53:07.099Z,4500.00
2018-08-28T09:54:07.027Z,4336.00
2018-08-28T09:55:06.953Z,4452.00
2018-08-28T09:56:06.883Z,4628.00
2018-08-28T09:57:06.815Z,4968.00
2018-08-28T09:58:06.749Z,5324.00
2018-08-28T09:59:06.677Z,5372.00
2018-08-28T10:00:06.603Z,5512.00
2018-08-28T10:01:06.526Z,6336.00
2018-08-28T10:02:06.454Z,6364.00
2018-08-28T10:03:06.385Z,6468.00
2018-08-28T10:04:06.312Z,6588.00
2018-08-28T10:05:06.247Z,6600.00
2018-08-28T10:06:06.170Z,6628.00
2018-08-28T10:07:06.100Z,6804.00
2018-08-28T10:08:06.039Z,6964.00
2018-08-28T10:09:05.956Z,7044.00
2018-08-28T10:10:05.884Z,7168.00
2018-08-28T10:11:05.857Z,7112.00
2018-08-28T10:12:05.745Z,6916.00
2018-08-28T10:13:05.673Z,6948.00
2018-08-28T10:14:05.611Z,7068.00
2018-08-28T10:15:05.537Z,7092.00
2018-08-28T10:16:05.462Z,7180.00
2018-08-28T10:17:05.387Z,7408.00
2018-08-28T10:18:05.317Z,7456.00
2018-08-28T10:19:05.258Z,7460.00
2018-08-28T10:20:05.220Z,7360.00
2018-08-28T10:21:05.109Z,7228.00
2018-08-28T10:22:05.037Z,7184.00
2018-08-28T10:23:04.963Z,7260.00
2018-08-28T10:24:04.895Z,7272.00
2018-08-28T10:25:04.823Z,7264.00
2018-08-28T10:26:04.750Z,7288.00
2018-08-28T10:27:04.719Z,7356.00
2018-08-28T10:28:04.641Z,7532.00
2018-08-28T10:29:04.590Z,7696.00
2018-08-28T10:30:04.471Z,7928.00
2018-08-28T10:31:04.394Z,8232.00
2018-08-28T10:32:04.330Z,8252.00
2018-08-28T10:33:04.254Z,8316.00
2018-08-28T10:34:04.189Z,8376.00
2018-08-28T10:35:04.114Z,8452.00
2018-08-28T10:36:04.048Z,8716.00
2018-08-28T10:37:03.976Z,8352.00
2018-08-28T10:38:03.934Z,6984.00
2018-08-28T10:39:03.835Z,6964.00
2018-08-28T10:40:03.769Z,7264.00
2018-08-28T10:41:03.694Z,8668.00
2018-08-28T10:42:03.620Z,8912.00
2018-08-28T10:43:03.575Z,8748.00
2018-08-28T10:44:03.484Z,8744.00
2018-08-28T10:45:03.420Z,8208.00
2018-08-28T10:46:03.354Z,8828.00
2018-08-28T10:47:03.272Z,8748.00
2018-08-28T10:48:03.209Z,8716.00
2018-08-28T10:49:03.137Z,8820.00
2018-08-28T10:50:03.072Z,8892.00
2018-08-28T10:51:02.992Z,9036.00
2018-08-28T10:52:02.921Z,9108.00
2018-08-28T10:53:02.940Z,9204.00
2018-08-28T10:54:02.794Z,9352.00
2018-08-28T10:55:02.712Z,9768.00
2018-08-28T10:56:02.645Z,9716.00
2018-08-28T10:57:02.574Z,8828.00
2018-08-28T10:58:02.503Z,9648.00
2018-08-28T10:59:02.453Z,9340.00
2018-08-28T11:00:02.367Z,9356.00
2018-08-28T11:01:02.294Z,9176.00
2018-08-28T11:02:02.231Z,9112.00
2018-08-28T11:03:02.165Z,9104.00
2018-08-28T11:04:02.093Z,9116.00
2018-08-28T11:05:02.025Z,9152.00
2018-08-28T11:06:01.948Z,9116.00
2018-08-28T11:07:01.899Z,9148.00
2018-08-28T11:08:01.817Z,9152.00
2018-08-28T11:09:01.740Z,9216.00
2018-08-28T11:10:01.672Z,9240.00
2018-08-28T11:11:01.607Z,9224.00
2018-08-28T11:12:01.539Z,9244.00
2018-08-28T11:13:01.470Z,9320.00
2018-08-28T11:14:01.398Z,9484.00
2018-08-28T11:15:01.327Z,9656.00
2018-08-28T11:16:01.323Z,9984.00
2018-08-28T11:17:01.186Z,9944.00
2018-08-28T11:18:01.136Z,10284.00
2018-08-28T11:19:01.057Z,10324.00
2018-08-28T11:20:00.979Z,8564.00
2018-08-28T11:21:00.915Z,8184.00
2018-08-28T11:22:00.843Z,9904.00
2018-08-28T11:23:00.885Z,9988.00
2018-08-28T11:24:00.704Z,10040.00
2018-08-28T11:25:00.637Z,10084.00
2018-08-28T11:26:00.574Z,10008.00
2018-08-28T11:27:00.507Z,10112.00
2018-08-28T11:28:00.445Z,10160.00
2018-08-28T11:29:00.378Z,10232.00
2018-08-28T11:30:00.346Z,10304.00
2018-08-28T11:31:00.225Z,10316.00
2018-08-28T11:32:00.156Z,10232.00
2018-08-28T11:33:00.102Z,10352.00
2018-08-28T11:34:00.019Z,10420.00
2018-08-28T11:34:59.947Z,10580.00
2018-08-28T11:35:59.880Z,11112.00
2018-08-28T11:36:59.810Z,10172.00
2018-08-28T11:37:59.743Z,10996.00
2018-08-28T11:38:59.677Z,11076.00
2018-08-28T11:39:59.608Z,11152.00
2018-08-28T11:40:59.539Z,10988.00
2018-08-28T11:41:59.491Z,11160.00
2018-08-28T11:42:59.409Z,11068.00
2018-08-28T11:43:59.338Z,11116.00
2018-08-28T11:44:59.267Z,11208.00
2018-08-28T11:45:59.199Z,11264.00
2018-08-28T11:46:59.207Z,11612.00
2018-08-28T11:47:59.064Z,10644.00
2018-08-28T11:48:58.996Z,10832.00
2018-08-28T11:49:58.933Z,11256.00
2018-08-28T11:50:58.860Z,11436.00
2018-08-28T11:51:58.791Z,11600.00
2018-08-28T11:52:58.729Z,11816.00
2018-08-28T11:53:58.672Z,12120.00
2018-08-28T11:54:58.591Z,12180.00
2018-08-28T11:55:58.526Z,12264.00
2018-08-28T11:56:58.459Z,12624.00
2018-08-28T11:57:58.387Z,13384.00
2018-08-28T11:58:58.323Z,22880.00
2018-08-28T11:59:58.254Z,53888.00
2018-08-28T12:00:58.190Z,81152.00
2018-08-28T12:01:58.155Z,88416.00
2018-08-28T12:02:58.061Z,89344.00
2018-08-28T12:03:57.992Z,86304.00
2018-08-28T12:04:57.952Z,86624.00
2018-08-28T12:05:57.862Z,90432.00
2018-08-28T12:06:57.810Z,75232.00
2018-08-28T12:07:57.730Z,83584.00
2018-08-28T12:08:57.705Z,21632.00
2018-08-28T12:09:57.613Z,12728.00
2018-08-28T12:10:57.541Z,27840.00
2018-08-28T12:11:57.488Z,84768.00
2018-08-28T12:12:57.472Z,76992.00
2018-08-28T12:13:57.360Z,80160.00
2018-08-28T12:14:57.293Z,77632.00
2018-08-28T12:15:57.254Z,74176.00
2018-08-28T12:16:57.168Z,81120.00
2018-08-28T12:17:57.111Z,82528.00
2018-08-28T12:18:57.048Z,85376.00
2018-08-28T12:19:56.995Z,83072.00
2018-08-28T12:20:56.972Z,79136.00
2018-08-28T12:21:56.864Z,84288.00
2018-08-28T12:22:56.805Z,86688.00
2018-08-28T12:23:56.766Z,85568.00
2018-08-28T12:24:56.700Z,88128.00
2018-08-28T12:25:56.627Z,88960.00
2018-08-28T12:26:56.571Z,86400.00
2018-08-28T12:27:56.511Z,88800.00
2018-08-28T12:28:56.457Z,88640.00
2018-08-28T12:29:56.412Z,87072.00
2018-08-28T12:30:56.339Z,83200.00
2018-08-28T12:31:56.288Z,40704.00
2018-08-28T12:32:56.223Z,81504.00
2018-08-28T12:33:56.175Z,81760.00
2018-08-28T12:34:56.114Z,85120.00
2018-08-28T12:35:56.086Z,81216.00
2018-08-28T12:36:56.108Z,80192.00